Time;durP1;ratioP1;P1;durP2;ratioP2;P2;SDS_P1;SDS_P2;PMS_P1;PMS_P2;Temp;Humidity;BMP_temperature;BMP_pressure;BME280_temperature;BME280_humidity;BME280_pressure;Samples;Min_cycle;Max_cycle;Signal;HPM_P1;HPM_P2
2023/08/07 00:01:44;;;;;;;3.73;1.20;;;;;;;20.20;55.81;100424.97;4990970;28;20378;-76
2023/08/07 00:04:10;;;;;;;1.77;1.00;;;;;;;20.25;55.70;100422.34;4990964;28;20400;-76
2023/08/07 00:06:35;;;;;;;2.00;1.00;;;;;;;20.37;55.35;100427.69;4990905;28;20386;-76
2023/08/07 00:09:01;;;;;;;2.00;1.20;;;;;;;20.31;55.60;100430.53;4990616;28;20567;-76
2023/08/07 00:11:28;;;;;;;2.77;1.20;;;;;;;20.38;55.42;100439.28;4989834;28;20382;-76
2023/08/07 00:13:54;;;;;;;2.28;1.10;;;;;;;20.41;55.36;100444.97;4990772;28;20377;-76
2023/08/07 00:16:19;;;;;;;3.30;1.13;;;;;;;20.47;55.36;100453.16;4989621;28;20436;-76
2023/08/07 00:18:44;;;;;;;3.07;1.20;;;;;;;20.45;55.05;100448.00;4996881;28;20411;-76
2023/08/07 00:21:10;;;;;;;2.10;1.20;;;;;;;20.46;55.21;100460.44;5005365;28;20408;-76
2023/08/07 00:23:35;;;;;;;2.70;1.20;;;;;;;20.50;55.08;100458.06;5005627;28;20907;-76
2023/08/07 00:26:01;;;;;;;2.22;1.30;;;;;;;20.46;55.08;100457.72;5004060;28;20392;-76
2023/08/07 00:28:28;;;;;;;2.70;1.27;;;;;;;20.55;55.14;100460.84;5003690;28;20417;-76
2023/08/07 00:30:53;;;;;;;2.35;1.13;;;;;;;20.44;54.83;100454.47;5000211;28;20486;-76
2023/08/07 00:33:19;;;;;;;2.80;1.30;;;;;;;20.45;55.16;100466.84;5001280;28;20423;-76
2023/08/07 00:35:44;;;;;;;2.17;1.33;;;;;;;20.48;54.93;100466.38;5000823;28;20414;-76
2023/08/07 00:38:09;;;;;;;2.90;1.53;;;;;;;20.36;54.88;100465.63;5002208;28;20411;-76
2023/08/07 00:40:39;;;;;;;2.13;1.40;;;;;;;20.43;54.78;100467.09;5001737;28;20408;-76
2023/08/07 00:43:05;;;;;;;1.83;1.40;;;;;;;20.41;54.50;100469.22;5001967;28;20404;-77
2023/08/07 00:45:41;;;;;;;2.50;1.60;;;;;;;20.27;54.62;100478.63;5011288;28;20422;-76
2023/08/07 00:48:06;;;;;;;1.77;1.50;;;;;;;20.30;54.36;100478.16;5011149;28;20372;-76
2023/08/07 00:50:32;;;;;;;2.10;1.67;;;;;;;20.30;54.64;100482.75;5009841;28;20429;-75
2023/08/07 00:52:59;;;;;;;2.88;1.58;;;;;;;20.31;54.43;100484.38;5010379;28;20406;-76
2023/08/07 00:55:25;;;;;;;2.15;1.60;;;;;;;20.35;54.61;100496.31;5011114;28;20380;-76
2023/08/07 00:57:51;;;;;;;3.20;1.70;;;;;;;20.40;54.29;100505.28;5013326;28;20425;-76
2023/08/07 01:00:17;;;;;;;3.37;1.50;;;;;;;20.34;54.29;100497.34;5013435;28;20387;-76
2023/08/07 01:02:43;;;;;;;2.92;1.77;;;;;;;20.32;54.47;100502.16;5013385;28;20396;-76
2023/08/07 01:05:09;;;;;;;3.03;1.90;;;;;;;20.29;54.46;100495.38;5013437;28;20394;-76
2023/08/07 01:07:34;;;;;;;2.78;2.10;;;;;;;20.20;54.76;100503.03;5012954;28;20467;-76
2023/08/07 01:10:03;;;;;;;4.43;2.40;;;;;;;20.14;55.26;100503.97;5013306;28;20392;-76
2023/08/07 01:12:45;;;;;;;3.78;2.25;;;;;;;20.33;55.19;100514.53;5013164;28;20384;-76
2023/08/07 01:15:16;;;;;;;5.13;2.50;;;;;;;20.40;55.11;100523.28;5013083;28;20454;-76
2023/08/07 01:17:43;;;;;;;4.13;2.60;;;;;;;20.40;55.31;100513.38;5012949;28;20710;-76
2023/08/07 01:20:10;;;;;;;4.65;2.75;;;;;;;20.49;55.07;100518.34;5013405;28;20480;-75
2023/08/07 01:22:36;;;;;;;2.60;2.40;;;;;;;20.37;55.49;100523.78;5013518;28;20391;-75
2023/08/07 01:25:01;;;;;;;4.50;3.10;;;;;;;20.44;55.65;100524.47;5013442;28;20860;-75
2023/08/07 01:27:35;;;;;;;4.13;3.20;;;;;;;20.49;55.61;100516.50;5013672;28;20875;-76
2023/08/07 01:30:22;;;;;;;4.63;3.50;;;;;;;20.29;55.81;100513.41;5013186;28;20408;-76
2023/08/07 01:33:01;;;;;;;4.60;3.20;;;;;;;20.12;56.31;100513.34;5013275;28;20856;-76
2023/08/07 01:35:32;;;;;;;4.20;3.13;;;;;;;20.04;56.53;100511.81;5013957;28;20517;-76
2023/08/07 01:37:59;;;;;;;4.82;3.55;;;;;;;19.90;56.78;100499.69;5012845;28;20495;-76
2023/08/07 01:40:26;;;;;;;3.73;3.40;;;;;;;19.75;57.19;100495.63;5013108;28;20883;-76
2023/08/07 01:42:52;;;;;;;4.50;4.10;;;;;;;19.74;57.24;100504.75;5013075;28;21093;-76
2023/08/07 01:45:25;;;;;;;4.47;3.60;;;;;;;19.67;57.20;100514.78;5013054;28;20411;-76
2023/08/07 01:47:52;;;;;;;5.18;3.42;;;;;;;19.61;57.40;100500.41;5012077;28;20392;-76
2023/08/07 01:50:19;;;;;;;5.63;3.50;;;;;;;19.64;57.38;100513.41;5012327;28;20395;-76
2023/08/07 01:52:45;;;;;;;5.45;3.55;;;;;;;19.76;56.96;100507.22;5011703;28;20450;-76
2023/08/07 01:55:11;;;;;;;4.90;3.60;;;;;;;19.68;57.01;100509.19;5012476;28;20384;-76
2023/08/07 01:57:36;;;;;;;4.27;3.77;;;;;;;19.64;57.17;100513.41;5012338;28;20481;-76
2023/08/07 02:00:03;;;;;;;4.97;3.83;;;;;;;19.62;56.98;100512.78;5012243;28;20384;-76
2023/08/07 02:02:29;;;;;;;4.10;3.65;;;;;;;19.62;57.11;100511.97;5012279;28;20388;-76
2023/08/07 02:04:54;;;;;;;4.00;3.60;;;;;;;19.61;56.88;100513.06;5012481;28;20391;-76
2023/08/07 02:07:20;;;;;;;4.55;3.42;;;;;;;19.50;57.02;100517.38;5010861;28;20895;-76
2023/08/07 02:09:45;;;;;;;3.80;3.40;;;;;;;19.52;56.75;100514.44;5012132;28;20388;-76
2023/08/07 02:12:10;;;;;;;3.60;3.30;;;;;;;19.41;56.83;100514.22;5012048;28;20388;-76
2023/08/07 02:14:36;;;;;;;3.78;3.38;;;;;;;19.49;56.80;100511.16;5011082;28;20466;-76
2023/08/07 02:17:01;;;;;;;4.20;3.53;;;;;;;19.53;56.47;100506.13;5011916;28;20451;-76
2023/08/07 02:19:27;;;;;;;3.88;3.33;;;;;;;19.41;56.86;100519.59;5011608;28;20740;-76
2023/08/07 02:21:52;;;;;;;4.87;3.30;;;;;;;19.31;56.86;100503.22;5011924;28;20376;-75
2023/08/07 02:24:19;;;;;;;4.70;3.40;;;;;;;19.25;57.06;100502.28;5011662;28;20380;-76
2023/08/07 02:26:44;;;;;;;4.97;3.67;;;;;;;19.23;57.04;100509.75;5012157;28;20490;-76
2023/08/07 02:29:10;;;;;;;3.85;3.35;;;;;;;19.23;57.19;100516.97;5011632;28;20412;-76
2023/08/07 02:31:35;;;;;;;3.50;3.20;;;;;;;19.23;57.23;100508.94;5011675;28;20376;-76
2023/08/07 02:34:01;;;;;;;3.77;3.47;;;;;;;19.13;57.22;100511.38;5011439;28;20507;-75
2023/08/07 02:36:26;;;;;;;3.58;3.28;;;;;;;19.14;57.36;100505.78;5011594;28;20748;-76
2023/08/07 02:38:52;;;;;;;3.80;3.23;;;;;;;19.20;57.08;100512.91;5011679;28;20395;-76
2023/08/07 02:41:17;;;;;;;5.20;3.47;;;;;;;19.18;57.12;100506.94;5011566;28;20384;-76
2023/08/07 02:43:43;;;;;;;4.27;3.43;;;;;;;19.09;57.30;100508.34;5011598;28;20388;-76
2023/08/07 02:46:08;;;;;;;5.70;3.40;;;;;;;19.14;57.14;100503.09;5011534;28;20888;-76
2023/08/07 02:48:34;;;;;;;5.57;3.20;;;;;;;19.16;57.05;100503.69;5011189;28;20446;-75
2023/08/07 02:50:59;;;;;;;3.67;3.37;;;;;;;19.14;57.16;100508.47;5015488;28;20383;-75
2023/08/07 02:53:24;;;;;;;4.32;3.22;;;;;;;19.09;57.25;100498.41;5020545;28;20390;-76
2023/08/07 02:55:50;;;;;;;4.40;3.10;;;;;;;19.10;57.03;100493.84;5016097;28;20475;-76
2023/08/07 02:58:15;;;;;;;5.13;3.47;;;;;;;19.07;57.30;100502.38;5020658;28;20388;-75
2023/08/07 03:00:41;;;;;;;4.93;3.40;;;;;;;19.14;56.93;100507.63;5019584;28;20392;-74
2023/08/07 03:03:06;;;;;;;5.40;3.17;;;;;;;19.07;57.17;100511.25;5021565;28;20379;-75
2023/08/07 03:05:32;;;;;;;4.60;3.00;;;;;;;19.13;57.00;100512.19;5020172;28;20869;-75
2023/08/07 03:07:57;;;;;;;3.73;3.00;;;;;;;19.09;57.15;100513.72;5019168;28;20481;-75
2023/08/07 03:10:23;;;;;;;3.80;2.80;;;;;;;18.98;57.21;100515.34;5021404;28;20859;-75
2023/08/07 03:12:48;;;;;;;4.27;3.00;;;;;;;18.96;57.31;100530.03;5019526;28;20377;-75
2023/08/07 03:15:14;;;;;;;3.20;2.87;;;;;;;18.94;57.32;100526.75;5020661;28;20393;-74
2023/08/07 03:17:39;;;;;;;3.90;2.92;;;;;;;18.98;57.11;100533.28;5020630;28;20408;-75
2023/08/07 03:20:05;;;;;;;4.57;2.93;;;;;;;19.00;57.25;100532.03;5015158;28;20384;-75
2023/08/07 03:22:31;;;;;;;4.55;3.22;;;;;;;18.97;56.96;100551.28;5010887;28;20394;-76
2023/08/07 03:24:57;;;;;;;3.10;2.80;;;;;;;18.99;56.90;100551.06;5019894;28;20376;-76
2023/08/07 03:27:22;;;;;;;3.00;2.70;;;;;;;18.97;57.03;100561.22;5020207;28;20385;-74
2023/08/07 03:30:06;;;;;;;4.93;2.70;;;;;;;19.07;56.93;100569.56;5021002;28;20761;-74
2023/08/07 03:32:32;;;;;;;3.53;2.88;;;;;;;19.03;57.13;100565.66;5015649;28;20737;-76
2023/08/07 03:34:57;;;;;;;3.53;2.50;;;;;;;19.15;56.68;100565.72;5020754;28;20847;-76
2023/08/07 03:37:23;;;;;;;3.30;2.57;;;;;;;19.16;56.50;100567.34;5020383;28;20960;-76
2023/08/07 03:39:50;;;;;;;3.30;2.70;;;;;;;19.35;56.17;100563.50;5019099;28;20454;-76
2023/08/07 03:42:15;;;;;;;6.45;2.58;;;;;;;19.34;56.13;100564.59;5016795;28;20749;-76
2023/08/07 03:44:41;;;;;;;3.33;2.50;;;;;;;19.58;55.76;100572.66;5021853;28;20436;-76
2023/08/07 03:47:06;;;;;;;3.33;2.60;;;;;;;19.55;55.58;100565.88;5019508;28;20516;-76
2023/08/07 03:49:32;;;;;;;3.53;2.50;;;;;;;19.65;55.20;100574.19;5036344;28;20418;-76
2023/08/07 03:51:59;;;;;;;3.20;2.70;;;;;;;19.80;55.21;100581.00;5034536;28;20397;-76
2023/08/07 03:54:25;;;;;;;3.65;2.50;;;;;;;19.68;54.98;100567.53;5019327;28;20378;-75
2023/08/07 03:56:51;;;;;;;3.08;2.78;;;;;;;19.84;54.92;100576.78;5019768;28;20742;-76
2023/08/07 03:59:17;;;;;;;3.90;2.40;;;;;;;19.91;54.45;100573.97;5020664;28;20381;-76
2023/08/07 04:01:43;;;;;;;4.20;2.77;;;;;;;19.99;54.46;100589.75;5017740;28;20735;-75
2023/08/07 04:04:09;;;;;;;3.10;2.60;;;;;;;19.95;54.20;100589.41;5016332;28;20808;-75
2023/08/07 04:06:34;;;;;;;3.40;2.43;;;;;;;20.13;54.13;100587.63;5017121;28;20883;-76
2023/08/07 04:09:00;;;;;;;4.67;2.50;;;;;;;20.29;53.83;100597.66;5016894;28;20465;-77
2023/08/07 04:11:26;;;;;;;2.90;2.60;;;;;;;20.28;53.60;100597.91;5018301;28;20819;-76
2023/08/07 04:13:52;;;;;;;3.17;2.55;;;;;;;20.27;53.57;100593.56;5019293;28;20400;-75
2023/08/07 04:16:17;;;;;;;3.22;2.63;;;;;;;20.25;53.67;100591.13;5021947;28;20424;-76
2023/08/07 04:18:43;;;;;;;4.60;2.60;;;;;;;20.25;53.37;100591.91;5031087;28;20439;-75
2023/08/07 04:21:08;;;;;;;2.90;2.60;;;;;;;20.31;53.40;100587.50;5021896;28;20867;-74
2023/08/07 04:23:34;;;;;;;4.87;3.10;;;;;;;20.72;53.20;100587.50;5021297;28;20374;-74
2023/08/07 04:26:00;;;;;;;3.27;2.47;;;;;;;20.88;52.51;100572.44;5022844;28;20422;-74
2023/08/07 04:28:28;;;;;;;2.75;2.40;;;;;;;20.89;51.70;100571.38;5022086;28;20378;-73
2023/08/07 04:30:53;;;;;;;4.40;2.58;;;;;;;20.54;52.52;100575.00;5018931;28;20416;-74
2023/08/07 04:33:20;;;;;;;2.88;2.33;;;;;;;20.38;52.71;100568.50;5020735;28;20382;-75
2023/08/07 04:35:46;;;;;;;3.28;2.83;;;;;;;20.48;53.02;100573.28;5015948;28;20384;-74
2023/08/07 04:38:13;;;;;;;3.20;2.53;;;;;;;20.59;52.75;100573.22;5013291;28;20425;-74
2023/08/07 04:40:46;;;;;;;3.05;2.47;;;;;;;20.93;52.41;100569.84;5012257;28;20734;-74
2023/08/07 04:43:13;;;;;;;4.82;2.63;;;;;;;20.82;52.04;100568.84;5012477;28;20404;-74
2023/08/07 04:45:39;;;;;;;3.20;2.90;;;;;;;20.89;51.94;100574.09;5010911;28;20459;-74
2023/08/07 04:48:06;;;;;;;4.75;3.00;;;;;;;20.81;52.16;100578.81;5018853;28;20485;-74
2023/08/07 04:50:31;;;;;;;3.08;2.50;;;;;;;20.88;52.19;100567.03;5014403;28;20404;-73
2023/08/07 04:52:57;;;;;;;4.70;2.80;;;;;;;21.06;51.38;100577.59;5016419;28;20383;-73
2023/08/07 04:55:22;;;;;;;3.65;2.55;;;;;;;21.07;51.60;100587.34;5029869;28;20396;-74
2023/08/07 04:57:49;;;;;;;4.17;2.50;;;;;;;21.27;51.07;100575.28;5029633;28;20394;-77
2023/08/07 05:00:15;;;;;;;3.35;2.78;;;;;;;21.50;50.92;100591.31;5018796;28;20380;-74
2023/08/07 05:02:41;;;;;;;3.38;2.60;;;;;;;21.68;50.49;100602.91;5030776;28;20444;-75
2023/08/07 05:05:09;;;;;;;4.10;2.57;;;;;;;21.77;49.81;100601.44;5031188;28;20480;-75
2023/08/07 05:07:34;;;;;;;2.80;2.40;;;;;;;21.85;49.61;100605.59;5031350;28;20421;-75
2023/08/07 05:10:02;;;;;;;2.85;2.35;;;;;;;21.70;49.50;100608.88;5031869;28;20411;-75
2023/08/07 05:12:27;;;;;;;3.58;2.50;;;;;;;21.97;49.63;100600.91;5032447;28;20724;-74
2023/08/07 05:14:52;;;;;;;3.57;2.50;;;;;;;22.04;49.33;100609.66;5032558;28;20448;-75
2023/08/07 05:17:18;;;;;;;2.47;2.13;;;;;;;22.04;48.93;100600.72;5032527;28;20441;-74
2023/08/07 05:19:43;;;;;;;3.50;2.30;;;;;;;22.29;48.53;100602.97;5032353;28;20730;-74
2023/08/07 05:22:09;;;;;;;2.67;1.90;;;;;;;22.00;48.31;100603.09;5032582;28;20440;-75
2023/08/07 05:24:38;;;;;;;2.33;2.13;;;;;;;22.12;48.39;100601.09;5032425;28;20378;-74
2023/08/07 05:27:05;;;;;;;3.05;2.00;;;;;;;22.20;47.76;100599.88;5031414;28;20371;-75
2023/08/07 05:29:31;;;;;;;3.70;1.80;;;;;;;22.48;47.74;100606.19;5031491;28;20434;-74
2023/08/07 05:31:56;;;;;;;2.10;1.83;;;;;;;22.63;47.00;100614.44;5031269;28;20401;-74
2023/08/07 05:34:22;;;;;;;2.40;1.90;;;;;;;22.53;47.06;100619.75;5032049;28;20378;-74
2023/08/07 05:36:47;;;;;;;2.60;2.00;;;;;;;22.48;47.08;100617.78;5032715;28;20409;-74
2023/08/07 05:39:13;;;;;;;2.08;1.80;;;;;;;22.55;46.90;100616.81;5032386;28;20416;-74
2023/08/07 05:41:39;;;;;;;3.67;1.97;;;;;;;22.30;46.70;100618.91;5031438;28;20899;-74
2023/08/07 05:44:05;;;;;;;4.85;2.03;;;;;;;22.41;46.44;100617.16;5029760;28;20386;-75
2023/08/07 05:46:31;;;;;;;5.07;2.47;;;;;;;22.60;46.50;100614.97;5032519;28;20387;-76
2023/08/07 05:48:56;;;;;;;2.55;1.80;;;;;;;22.52;46.44;100632.41;5032125;28;20762;-75
2023/08/07 05:51:22;;;;;;;2.97;1.70;;;;;;;22.55;46.04;100627.63;5030821;28;20806;-74
2023/08/07 05:53:47;;;;;;;5.20;1.70;;;;;;;23.07;45.52;100644.16;5031581;28;20382;-74
2023/08/07 05:56:12;;;;;;;3.20;1.90;;;;;;;23.46;45.43;100643.97;5030373;28;20712;-75
2023/08/07 05:58:38;;;;;;;2.70;1.73;;;;;;;23.60;44.88;100647.06;5030700;28;20419;-75
2023/08/07 06:01:03;;;;;;;2.03;1.77;;;;;;;23.90;45.02;100650.31;5031797;28;20378;-75
2023/08/07 06:03:29;;;;;;;2.57;1.80;;;;;;;23.70;44.04;100656.31;5031060;28;20393;-75
2023/08/07 06:05:54;;;;;;;2.72;1.63;;;;;;;24.05;43.61;100653.91;5023154;28;20383;-74
2023/08/07 06:08:20;;;;;;;1.73;1.53;;;;;;;24.31;44.14;100645.94;5027439;28;20382;-74
2023/08/07 06:10:45;;;;;;;2.20;1.43;;;;;;;24.37;43.22;100646.78;5032724;28;20447;-74
2023/08/07 06:13:11;;;;;;;6.75;1.35;;;;;;;24.32;42.81;100652.16;5031687;28;20398;-73
2023/08/07 06:15:37;;;;;;;2.40;1.63;;;;;;;24.32;42.61;100661.09;5032629;28;20382;-74
2023/08/07 06:18:03;;;;;;;2.08;1.48;;;;;;;24.40;43.21;100655.19;5032289;28;20399;-75
2023/08/07 06:20:28;;;;;;;3.63;1.30;;;;;;;24.50;42.61;100661.72;5032382;28;20696;-74
2023/08/07 06:22:53;;;;;;;6.55;5.57;;;;;;;24.55;42.88;100651.75;5032545;28;20367;-75
2023/08/07 06:25:19;;;;;;;2.63;2.10;;;;;;;24.58;42.62;100655.84;5032808;28;20425;-74
2023/08/07 06:27:45;;;;;;;5.63;3.80;;;;;;;24.69;42.80;100659.41;5031322;28;20850;-74
2023/08/07 06:30:11;;;;;;;3.17;1.77;;;;;;;24.47;42.22;100660.38;5031773;28;20758;-74
2023/08/07 06:32:37;;;;;;;2.92;2.45;;;;;;;24.61;42.28;100656.13;5031302;28;20374;-74
2023/08/07 06:35:04;;;;;;;5.10;3.70;;;;;;;24.65;42.12;100661.00;5032055;28;20378;-74
2023/08/07 06:37:29;;;;;;;2.25;1.70;;;;;;;24.39;40.84;100656.25;5031941;28;20465;-74
2023/08/07 06:39:55;;;;;;;2.50;1.25;;;;;;;23.89;41.02;100670.31;5018470;28;20423;-74
2023/08/07 06:42:20;;;;;;;3.00;1.70;;;;;;;23.92;41.59;100658.97;5014613;28;20380;-74
2023/08/07 06:44:47;;;;;;;3.07;1.90;;;;;;;23.98;41.56;100657.91;5011971;28;20434;-73
2023/08/07 06:47:12;;;;;;;2.67;1.47;;;;;;;24.12;41.27;100661.78;5012014;28;20471;-74
2023/08/07 06:49:38;;;;;;;2.92;1.50;;;;;;;24.20;41.68;100657.78;5012103;28;20463;-73
2023/08/07 06:52:04;;;;;;;2.63;1.80;;;;;;;24.44;41.31;100647.34;5012016;28;20380;-74
2023/08/07 06:54:29;;;;;;;2.28;1.20;;;;;;;24.23;40.94;100668.09;5012796;28;20376;-73
2023/08/07 06:56:55;;;;;;;2.13;1.20;;;;;;;23.93;41.09;100657.88;5011471;28;20404;-75
2023/08/07 06:59:20;;;;;;;2.43;1.50;;;;;;;23.89;41.52;100654.88;5012826;28;20483;-73
2023/08/07 07:01:46;;;;;;;1.45;1.17;;;;;;;23.62;41.83;100655.75;5012090;28;20384;-75
2023/08/07 07:04:11;;;;;;;1.10;0.90;;;;;;;23.78;41.16;100663.97;5011475;28;20418;-77
2023/08/07 07:06:37;;;;;;;1.77;0.80;;;;;;;23.81;40.42;100656.19;5028019;28;20438;-76
2023/08/07 07:09:03;;;;;;;1.75;0.90;;;;;;;23.58;40.85;100660.03;5011179;28;20711;-75
2023/08/07 07:11:29;;;;;;;1.10;0.90;;;;;;;23.77;41.38;100659.63;5011612;28;20435;-75
2023/08/07 07:13:54;;;;;;;1.50;1.17;;;;;;;24.03;40.44;100657.97;5011559;28;20439;-76
2023/08/07 07:16:21;;;;;;;1.37;0.80;;;;;;;23.84;40.83;100669.22;5011485;28;20451;-76
2023/08/07 07:18:50;;;;;;;2.17;0.90;;;;;;;23.81;40.68;100677.84;5011465;28;20395;-75
2023/08/07 07:21:16;;;;;;;1.38;1.08;;;;;;;23.70;40.18;100677.97;5011878;28;20380;-76
2023/08/07 07:23:41;;;;;;;1.27;0.73;;;;;;;23.91;39.70;100674.38;5012118;28;20863;-75
2023/08/07 07:26:07;;;;;;;1.30;0.80;;;;;;;23.64;40.74;100679.81;5011597;28;20380;-75
2023/08/07 07:28:32;;;;;;;1.23;0.70;;;;;;;23.70;40.29;100678.81;5011489;28;20430;-76
2023/08/07 07:30:58;;;;;;;2.60;1.53;;;;;;;23.85;40.53;100670.81;5011741;28;20754;-76
2023/08/07 07:33:23;;;;;;;1.60;1.00;;;;;;;24.09;40.01;100678.56;5011924;28;20380;-76
2023/08/07 07:35:49;;;;;;;3.78;1.50;;;;;;;23.98;40.19;100669.56;5022140;28;20893;-74
2023/08/07 07:38:16;;;;;;;0.97;0.87;;;;;;;24.13;40.00;100654.47;5015494;28;20424;-74
2023/08/07 07:40:42;;;;;;;2.47;0.80;;;;;;;23.77;39.53;100660.47;5000709;28;20522;-74
2023/08/07 07:43:07;;;;;;;1.23;0.70;;;;;;;23.54;39.87;100664.34;4998054;28;20416;-76
2023/08/07 07:45:36;;;;;;;1.02;0.60;;;;;;;23.55;40.35;100668.69;5007265;28;20403;-76
2023/08/07 07:48:02;;;;;;;1.23;0.70;;;;;;;23.83;39.92;100669.47;5009675;28;20710;-77
2023/08/07 07:50:28;;;;;;;2.10;0.80;;;;;;;24.15;40.01;100660.47;5009415;28;20395;-75
2023/08/07 07:52:54;;;;;;;1.60;1.00;;;;;;;24.12;40.08;100664.50;5009546;28;20384;-74
2023/08/07 07:55:19;;;;;;;1.07;0.80;;;;;;;24.13;39.45;100658.03;5009520;28;20381;-76
2023/08/07 07:57:45;;;;;;;1.67;0.70;;;;;;;24.19;38.98;100659.66;5011666;28;20436;-76
2023/08/07 08:00:12;;;;;;;2.10;1.10;;;;;;;24.34;38.85;100647.28;5011881;28;20380;-75
2023/08/07 08:02:40;;;;;;;1.48;1.00;;;;;;;24.54;38.22;100655.56;5010500;28;20392;-76
2023/08/07 08:05:07;;;;;;;0.90;0.80;;;;;;;24.53;38.00;100650.41;5012137;28;20455;-74
2023/08/07 08:07:34;;;;;;;1.15;0.60;;;;;;;24.41;38.59;100667.63;5011248;28;20380;-75
2023/08/07 08:10:00;;;;;;;2.10;1.03;;;;;;;24.42;39.07;100676.59;5011724;28;20392;-75
2023/08/07 08:12:25;;;;;;;1.10;0.90;;;;;;;24.85;38.02;100671.94;5011513;28;20390;-76
2023/08/07 08:14:51;;;;;;;2.88;0.82;;;;;;;24.86;37.10;100678.16;5011203;28;20461;-76
2023/08/07 08:17:16;;;;;;;1.63;1.07;;;;;;;25.30;36.41;100680.44;5011590;28;20470;-76
2023/08/07 08:19:42;;;;;;;1.40;0.63;;;;;;;25.04;35.79;100683.09;5011314;28;20379;-75
2023/08/07 08:22:07;;;;;;;1.17;0.90;;;;;;;25.06;35.85;100663.84;5011390;28;20802;-75
2023/08/07 08:24:33;;;;;;;1.47;0.87;;;;;;;25.18;35.23;100672.53;5012081;28;20403;-75
2023/08/07 08:26:58;;;;;;;2.57;1.20;;;;;;;24.75;35.86;100677.31;5013139;28;20849;-75
2023/08/07 08:29:26;;;;;;;3.55;1.10;;;;;;;24.49;36.76;100698.84;5027827;28;20982;-75
2023/08/07 08:32:22;;;;;;;1.90;0.80;;;;;;;24.60;37.07;100684.28;5109208;27;20434;-74
2023/08/07 08:34:49;;;;;;;2.70;0.80;;;;;;;24.32;37.73;100690.91;5109183;28;20400;-75
2023/08/07 08:37:15;;;;;;;1.15;0.70;;;;;;;24.35;37.42;100697.69;5109182;28;20829;-75
2023/08/07 08:39:40;;;;;;;6.20;1.63;;;;;;;24.49;37.44;100689.88;5108971;28;20437;-75
2023/08/07 08:42:10;;;;;;;3.72;1.80;;;;;;;24.73;37.53;100684.91;5109491;28;20379;-75
2023/08/07 08:44:38;;;;;;;5.75;2.00;;;;;;;24.69;38.00;100686.50;5110660;28;20373;-75
2023/08/07 08:47:04;;;;;;;3.77;1.90;;;;;;;24.77;37.53;100686.00;5109907;28;20375;-75
2023/08/07 08:49:36;;;;;;;2.35;1.30;;;;;;;24.84;36.89;100681.13;5109184;28;20435;-75
2023/08/07 08:52:02;;;;;;;1.45;0.75;;;;;;;24.57;36.31;100692.16;5109277;28;20423;-75
2023/08/07 08:54:28;;;;;;;1.23;0.60;;;;;;;23.86;37.30;100706.84;5109412;28;20380;-77
2023/08/07 08:56:56;;;;;;;1.38;0.68;;;;;;;23.89;38.04;100700.91;5109165;28;20375;-75
2023/08/07 08:59:22;;;;;;;1.77;0.60;;;;;;;24.37;37.77;100715.31;5109196;28;20883;-76
2023/08/07 09:01:51;;;;;;;2.13;0.95;;;;;;;24.69;37.69;100702.78;5108711;28;20369;-74
2023/08/07 09:04:18;;;;;;;3.95;1.33;;;;;;;24.82;37.54;100702.28;5108704;28;20380;-75
2023/08/07 09:06:44;;;;;;;2.80;1.00;;;;;;;24.74;37.39;100691.94;5108526;28;20736;-75
2023/08/07 09:09:12;;;;;;;4.20;0.93;;;;;;;24.65;37.73;100688.94;5108595;28;20856;-75
2023/08/07 09:11:38;;;;;;;2.27;1.03;;;;;;;24.74;37.44;100692.75;5108453;28;20407;-75
2023/08/07 09:14:04;;;;;;;2.75;0.80;;;;;;;24.48;37.49;100699.91;5109424;28;20705;-75
2023/08/07 09:16:30;;;;;;;2.65;0.88;;;;;;;24.36;37.55;100697.44;5109180;28;20387;-74
2023/08/07 09:18:56;;;;;;;2.75;1.08;;;;;;;24.55;37.45;100681.56;5109271;28;20377;-75
2023/08/07 09:21:21;;;;;;;3.53;1.40;;;;;;;24.86;37.27;100687.09;5108364;28;20450;-75
2023/08/07 09:23:47;;;;;;;2.93;1.10;;;;;;;24.97;36.54;100680.66;5108254;28;20449;-75
2023/08/07 09:26:12;;;;;;;1.77;1.00;;;;;;;24.78;37.00;100702.00;5108536;28;20456;-75
2023/08/07 09:28:38;;;;;;;1.63;1.00;;;;;;;24.67;37.54;100681.34;5108611;28;20416;-75
2023/08/07 09:31:08;;;;;;;1.40;1.30;;;;;;;25.00;37.19;100677.38;5108280;28;20413;-76
2023/08/07 09:33:33;;;;;;;3.15;1.40;;;;;;;25.02;36.79;100679.81;5108582;28;20377;-75
2023/08/07 09:36:01;;;;;;;1.70;0.93;;;;;;;25.08;36.52;100686.06;5108558;28;20848;-76
2023/08/07 09:38:32;;;;;;;1.85;0.73;;;;;;;24.81;37.17;100684.38;5108980;28;20373;-75
2023/08/07 09:41:03;;;;;;;1.17;0.77;;;;;;;24.79;37.03;100686.53;5108255;28;20395;-75
2023/08/07 09:43:29;;;;;;;2.30;0.88;;;;;;;24.51;37.42;100683.16;5096408;28;20460;-75
2023/08/07 09:46:05;;;;;;;4.15;1.50;;;;;;;24.70;37.34;100683.50;5094279;28;20377;-76
2023/08/07 09:48:33;;;;;;;2.70;1.10;;;;;;;25.14;36.48;100690.44;5094439;28;20373;-76
2023/08/07 09:51:04;;;;;;;1.48;0.60;;;;;;;24.63;36.57;100680.22;5094266;28;20397;-75
2023/08/07 09:53:31;;;;;;;2.40;0.93;;;;;;;24.54;37.01;100685.38;5094158;28;20377;-75
2023/08/07 09:55:56;;;;;;;1.67;0.70;;;;;;;24.64;36.80;100675.66;5094538;28;20373;-75
2023/08/07 09:58:23;;;;;;;2.17;0.70;;;;;;;24.48;37.40;100667.41;5094542;28;20388;-75
2023/08/07 10:00:49;;;;;;;2.80;0.90;;;;;;;24.53;37.39;100670.19;5093252;28;20370;-76
2023/08/07 10:03:16;;;;;;;1.10;0.70;;;;;;;24.70;37.56;100667.25;5094416;28;20407;-75
2023/08/07 10:05:43;;;;;;;1.70;0.60;;;;;;;24.96;36.73;100670.88;5094299;28;20876;-75
2023/08/07 10:08:10;;;;;;;1.35;0.70;;;;;;;25.05;36.77;100675.75;5094025;28;20845;-75
2023/08/07 10:10:37;;;;;;;1.52;0.80;;;;;;;24.88;36.81;100668.66;5094398;28;20849;-75
2023/08/07 10:13:02;;;;;;;1.98;1.00;;;;;;;25.42;36.78;100669.34;5094820;28;20377;-75
2023/08/07 10:15:30;;;;;;;1.50;0.70;;;;;;;25.78;36.25;100667.44;5094536;28;20822;-76
2023/08/07 10:17:56;;;;;;;2.17;1.15;;;;;;;25.66;36.18;100666.88;5094985;28;20468;-75
2023/08/07 10:20:24;;;;;;;2.20;1.00;;;;;;;25.66;36.27;100658.75;5092353;28;20373;-74
2023/08/07 10:22:50;;;;;;;1.55;0.82;;;;;;;25.41;36.02;100670.41;5093447;28;20374;-75
2023/08/07 10:25:21;;;;;;;2.15;0.90;;;;;;;25.40;35.87;100666.09;5094036;28;20403;-75
2023/08/07 10:27:49;;;;;;;1.42;0.70;;;;;;;25.18;35.99;100669.81;5093646;28;20391;-75
2023/08/07 10:30:17;;;;;;;1.38;0.55;;;;;;;25.02;36.76;100665.47;5093654;28;20420;-75
2023/08/07 10:32:44;;;;;;;2.17;0.90;;;;;;;25.19;36.94;100660.59;5093244;28;20457;-75
2023/08/07 10:35:09;;;;;;;1.83;0.80;;;;;;;25.15;36.06;100671.16;5093976;28;20374;-75
2023/08/07 10:37:38;;;;;;;2.45;0.80;;;;;;;25.21;36.30;100660.31;5092922;28;20412;-75
2023/08/07 10:40:11;;;;;;;1.25;0.60;;;;;;;24.94;35.80;100664.09;5093726;28;20381;-76
2023/08/07 10:42:54;;;;;;;1.88;0.65;;;;;;;25.21;36.44;100658.44;5096970;28;20468;-75
2023/08/07 10:45:22;;;;;;;1.52;0.80;;;;;;;25.36;35.76;100672.03;5094524;28;20388;-77
2023/08/07 10:48:09;;;;;;;2.13;0.80;;;;;;;25.58;36.02;100665.53;5092884;28;20468;-76
2023/08/07 10:50:48;;;;;;;1.27;0.90;;;;;;;25.79;35.44;100668.28;5093193;28;20711;-74
2023/08/07 10:53:45;;;;;;;1.75;0.90;;;;;;;25.81;35.06;100653.31;5093274;28;20761;-75
2023/08/07 10:56:34;;;;;;;1.95;0.85;;;;;;;26.20;34.90;100658.16;5092332;28;20397;-74
2023/08/07 10:59:11;;;;;;;2.22;0.80;;;;;;;26.54;35.00;100648.53;5093730;28;20361;-76
2023/08/07 11:01:43;;;;;;;1.50;0.90;;;;;;;26.36;34.53;100658.09;5093410;28;20779;-75
2023/08/07 11:04:13;;;;;;;1.13;0.70;;;;;;;26.31;34.42;100650.81;5093085;28;20385;-75
2023/08/07 11:06:41;;;;;;;1.00;0.50;;;;;;;26.02;34.60;100629.69;5093396;28;20381;-75
2023/08/07 11:09:08;;;;;;;0.93;0.50;;;;;;;25.12;35.65;100630.19;5093836;28;20381;-75
2023/08/07 11:11:46;;;;;;;1.88;0.73;;;;;;;25.75;35.41;100633.50;5087673;28;20417;-76
2023/08/07 11:14:17;;;;;;;2.40;0.80;;;;;;;25.65;35.32;100647.09;5075421;28;20505;-74
2023/08/07 11:16:44;;;;;;;0.60;0.47;;;;;;;25.83;35.05;100645.72;5071374;28;20529;-78
2023/08/07 11:19:11;;;;;;;0.90;0.60;;;;;;;26.04;34.82;100648.44;5072286;28;20391;-77
2023/08/07 11:21:37;;;;;;;1.10;0.75;;;;;;;26.14;34.44;100640.25;5070466;28;20454;-75
2023/08/07 11:24:03;;;;;;;1.80;0.90;;;;;;;25.91;34.78;100636.19;5069574;28;20524;-75